createdAt,value
2022-08-27T00:01:02.235Z,9.82
2022-08-27T00:06:05.086Z,9.88
2022-08-27T00:11:11.531Z,10.07
2022-08-27T00:16:15.922Z,16.30
2022-08-27T00:21:18.923Z,14.32
2022-08-27T00:26:21.472Z,10.57
2022-08-27T00:31:27.517Z,11.23
2022-08-27T00:36:30.366Z,9.32
2022-08-27T00:41:33.530Z,9.63
2022-08-27T00:46:39.132Z,9.65
2022-08-27T00:51:41.928Z,9.68
2022-08-27T00:56:45.564Z,9.57
2022-08-27T01:02:12.868Z,9.70
2022-08-27T01:07:15.501Z,8.65
2022-08-27T01:12:18.987Z,9.77
2022-08-27T01:17:21.550Z,9.82
2022-08-27T01:22:43.302Z,10.15
2022-08-27T01:27:47.319Z,10.15
2022-08-27T01:32:50.077Z,11.38
2022-08-27T01:38:02.118Z,10.95
2022-08-27T01:43:05.119Z,10.77
2022-08-27T01:48:10.563Z,10.30
2022-08-27T01:53:16.953Z,11.00
2022-08-27T01:58:27.278Z,11.03
2022-08-27T02:03:30.043Z,10.87
2022-08-27T02:08:33.293Z,11.23
2022-08-27T02:13:36.484Z,10.97
2022-08-27T02:18:41.736Z,11.17
2022-08-27T02:23:45.556Z,10.40
2022-08-27T02:28:48.120Z,10.63
2022-08-27T02:33:50.675Z,10.73
2022-08-27T02:38:53.201Z,11.30
2022-08-27T02:43:55.784Z,11.63
2022-08-27T02:48:58.297Z,10.73
2022-08-27T02:54:02.214Z,11.40
2022-08-27T02:59:05.976Z,11.87
2022-08-27T03:04:08.553Z,12.70
2022-08-27T03:09:14.239Z,13.30
2022-08-27T03:14:17.164Z,13.20
2022-08-27T03:19:24.120Z,12.00
2022-08-27T03:24:26.814Z,12.77
2022-08-27T03:29:29.389Z,11.60
2022-08-27T03:34:31.899Z,11.90
2022-08-27T03:39:34.472Z,11.40
2022-08-27T03:44:36.946Z,11.00
2022-08-27T03:49:39.528Z,11.63
2022-08-27T03:54:42.702Z,11.10
2022-08-27T03:59:45.409Z,12.70
2022-08-27T04:04:47.976Z,12.30
2022-08-27T04:09:50.602Z,12.83
2022-08-27T04:14:53.714Z,12.83
2022-08-27T04:19:56.277Z,13.27
2022-08-27T04:24:58.937Z,12.87
2022-08-27T04:30:02.132Z,13.27
2022-08-27T04:35:37.282Z,12.70
2022-08-27T04:40:58.446Z,13.30
2022-08-27T04:46:00.977Z,12.50
2022-08-27T04:51:03.819Z,14.03
2022-08-27T04:56:06.793Z,14.10
2022-08-27T05:01:18.992Z,13.83
2022-08-27T05:06:22.335Z,12.87
2022-08-27T05:11:27.981Z,12.93
2022-08-27T05:16:30.858Z,13.70
2022-08-27T05:21:35.755Z,13.80
2022-08-27T05:26:38.331Z,13.23
2022-08-27T05:31:41.679Z,13.63
2022-08-27T05:36:48.086Z,14.38
2022-08-27T05:41:53.043Z,13.20
2022-08-27T05:46:55.595Z,13.75
2022-08-27T05:51:58.140Z,14.23
2022-08-27T05:57:00.639Z,13.35
2022-08-27T06:02:04.230Z,13.30
2022-08-27T06:07:09.398Z,13.73
2022-08-27T06:12:12.022Z,12.63
2022-08-27T06:17:14.716Z,13.88
2022-08-27T06:22:17.435Z,13.52
2022-08-27T06:27:20.561Z,12.35
2022-08-27T06:32:24.178Z,13.52
2022-08-27T06:37:28.461Z,13.55
2022-08-27T06:42:31.723Z,13.23
2022-08-27T06:47:37.392Z,13.05
2022-08-27T06:52:43.036Z,11.32
2022-08-27T06:57:45.611Z,12.23
2022-08-27T07:02:49.644Z,10.70
2022-08-27T07:07:52.417Z,12.70
2022-08-27T07:12:55.249Z,11.13
2022-08-27T07:17:58.851Z,11.65
2022-08-27T07:23:01.417Z,11.68
2022-08-27T07:28:04.016Z,10.57
2022-08-27T07:33:06.533Z,11.32
2022-08-27T07:38:11.973Z,11.05
2022-08-27T07:43:33.491Z,10.13
2022-08-27T07:48:36.646Z,10.95
2022-08-27T07:53:40.843Z,10.38
2022-08-27T07:58:44.322Z,10.00
2022-08-27T08:03:47.268Z,10.05
2022-08-27T08:08:49.977Z,10.25
2022-08-27T08:13:54.153Z,10.75
2022-08-27T08:18:56.723Z,10.57
2022-08-27T08:24:00.201Z,10.38
2022-08-27T08:29:05.159Z,10.63
2022-08-27T08:34:08.240Z,10.13
2022-08-27T08:39:10.986Z,9.43
2022-08-27T08:44:32.766Z,9.07
2022-08-27T08:49:42.337Z,9.45
2022-08-27T08:54:45.058Z,8.95
2022-08-27T08:59:55.995Z,9.57
2022-08-27T09:05:04.519Z,9.48
2022-08-27T09:10:40.175Z,7.80
2022-08-27T09:15:42.802Z,8.93
2022-08-27T09:20:49.697Z,8.40
2022-08-27T09:25:52.350Z,8.40
2022-08-27T09:30:58.172Z,8.43
2022-08-27T09:36:08.868Z,9.70
2022-08-27T09:41:21.668Z,8.27
2022-08-27T09:46:26.918Z,8.32
2022-08-27T09:51:30.156Z,7.53
2022-08-27T09:56:37.639Z,7.30
2022-08-27T10:02:02.851Z,7.63
2022-08-27T10:07:30.118Z,7.85
2022-08-27T10:12:52.011Z,8.00
2022-08-27T10:18:09.218Z,8.25
2022-08-27T10:23:31.760Z,8.13
2022-08-27T10:28:48.887Z,7.55
2022-08-27T10:33:51.357Z,17.00
2022-08-27T10:39:09.667Z,8.40
2022-08-27T10:45:04.488Z,9.70
2022-08-27T10:50:21.363Z,8.50
2022-08-27T10:55:33.647Z,6.90
2022-08-27T11:00:45.234Z,6.90
2022-08-27T11:05:49.989Z,6.97
2022-08-27T11:10:56.987Z,6.10
2022-08-27T11:16:01.320Z,6.43
2022-08-27T11:21:13.146Z,6.00
2022-08-27T11:26:16.188Z,5.93
2022-08-27T11:31:40.830Z,5.47
2022-08-27T11:37:17.184Z,5.75
2022-08-27T11:42:28.660Z,5.75
2022-08-27T11:47:31.148Z,5.63
2022-08-27T11:52:40.104Z,5.57
2022-08-27T11:57:43.191Z,5.85
2022-08-27T12:02:58.019Z,6.47
2022-08-27T12:08:17.807Z,6.25
2022-08-27T12:13:25.762Z,5.80
2022-08-27T12:18:34.167Z,6.30
2022-08-27T12:23:42.937Z,5.88
2022-08-27T12:28:45.718Z,6.47
2022-08-27T12:33:51.617Z,6.68
2022-08-27T12:38:58.921Z,7.05
2022-08-27T12:44:06.396Z,6.68
2022-08-27T12:49:26.171Z,6.90
2022-08-27T12:54:59.195Z,6.80
2022-08-27T13:00:26.252Z,7.22
2022-08-27T13:05:39.011Z,7.18
2022-08-27T13:10:41.508Z,6.80
2022-08-27T13:15:47.813Z,7.05
2022-08-27T13:21:00.095Z,7.13
2022-08-27T13:26:11.344Z,8.68
2022-08-27T13:31:15.305Z,11.02
2022-08-27T13:36:51.268Z,8.43
2022-08-27T13:41:54.732Z,8.02
2022-08-27T13:47:04.611Z,7.10
2022-08-27T13:52:21.064Z,6.90
2022-08-27T13:57:39.566Z,6.85
2022-08-27T14:02:42.597Z,6.68
2022-08-27T14:08:11.327Z,7.25
2022-08-27T14:13:22.877Z,7.90
2022-08-27T14:18:58.005Z,7.65
2022-08-27T14:23:57.527Z,8.10
2022-08-27T14:29:01.804Z,7.30
2022-08-27T14:34:06.434Z,8.13
2022-08-27T14:39:10.556Z,7.32
2022-08-27T14:44:13.602Z,7.00
2022-08-27T14:49:26.775Z,11.50
2022-08-27T14:54:33.640Z,7.93
2022-08-27T14:59:37.505Z,8.40
2022-08-27T15:04:40.423Z,9.02
2022-08-27T15:09:47.988Z,7.57
2022-08-27T15:14:50.581Z,8.90
2022-08-27T15:19:53.142Z,7.43
2022-08-27T15:24:57.921Z,7.57
2022-08-27T15:30:01.239Z,7.32
2022-08-27T15:35:09.979Z,7.10
2022-08-27T15:40:15.486Z,6.97
2022-08-27T15:45:18.200Z,6.97
2022-08-27T15:50:21.012Z,6.13
2022-08-27T15:55:26.640Z,6.45
2022-08-27T16:00:32.566Z,6.80
2022-08-27T16:05:37.395Z,6.63
2022-08-27T16:10:39.963Z,6.43
2022-08-27T16:15:42.583Z,5.97
2022-08-27T16:20:45.436Z,5.75
2022-08-27T16:25:47.916Z,5.18
2022-08-27T16:30:52.131Z,5.10
2022-08-27T16:35:55.024Z,5.50
2022-08-27T16:40:57.432Z,5.47
2022-08-27T16:46:01.552Z,6.03
2022-08-27T16:51:07.016Z,5.97
2022-08-27T16:56:11.023Z,5.97
2022-08-27T17:01:19.818Z,6.88
2022-08-27T17:06:22.347Z,6.80
2022-08-27T17:11:30.814Z,6.78
2022-08-27T17:16:36.550Z,6.97
2022-08-27T17:21:39.105Z,7.03
2022-08-27T17:26:41.751Z,8.07
2022-08-27T17:31:44.220Z,8.18
2022-08-27T17:36:47.286Z,7.68
2022-08-27T17:41:51.668Z,7.78
2022-08-27T17:46:57.317Z,7.95
2022-08-27T17:52:08.903Z,8.85
2022-08-27T17:57:22.429Z,8.93
2022-08-27T18:02:36.111Z,8.50
2022-08-27T18:07:40.082Z,7.95
2022-08-27T18:12:44.706Z,7.65
2022-08-27T18:17:47.692Z,7.05
2022-08-27T18:22:52.524Z,7.75
2022-08-27T18:27:57.331Z,9.60
2022-08-27T18:33:00.151Z,12.07
2022-08-27T18:38:02.746Z,15.07
2022-08-27T18:43:05.656Z,20.55
2022-08-27T18:48:15.962Z,27.20
2022-08-27T18:53:22.349Z,34.80
2022-08-27T18:58:25.382Z,29.45
2022-08-27T19:03:31.495Z,23.45
2022-08-27T19:08:34.591Z,16.52
2022-08-27T19:13:38.747Z,14.32
2022-08-27T19:18:41.797Z,13.95
2022-08-27T19:23:44.504Z,14.27
2022-08-27T19:28:47.335Z,15.90
2022-08-27T19:33:50.006Z,18.27
2022-08-27T19:38:53.553Z,16.45
2022-08-27T19:43:56.078Z,15.52
2022-08-27T19:48:59.021Z,13.82
2022-08-27T19:54:01.507Z,16.15
2022-08-27T19:59:17.876Z,15.27
2022-08-27T20:04:23.775Z,15.38
2022-08-27T20:09:26.292Z,15.55
2022-08-27T20:14:28.777Z,15.02
2022-08-27T20:19:33.520Z,14.52
2022-08-27T20:24:37.299Z,14.77
2022-08-27T20:29:41.103Z,14.73
2022-08-27T20:34:44.394Z,15.98
2022-08-27T20:39:48.352Z,15.20
2022-08-27T20:44:50.859Z,15.77
2022-08-27T20:49:53.299Z,16.10
2022-08-27T20:54:55.717Z,15.75
2022-08-27T21:00:16.594Z,16.77
2022-08-27T21:05:19.475Z,15.93
2022-08-27T21:10:21.963Z,15.25
2022-08-27T21:15:24.729Z,15.38
2022-08-27T21:20:27.223Z,15.70
2022-08-27T21:25:29.733Z,15.65
2022-08-27T21:30:32.220Z,16.63
2022-08-27T21:35:34.700Z,16.45
2022-08-27T21:40:37.748Z,15.23
2022-08-27T21:45:41.738Z,16.52
2022-08-27T21:50:44.142Z,15.13
2022-08-27T21:55:46.887Z,14.48
2022-08-27T22:00:50.539Z,14.05
2022-08-27T22:05:53.500Z,13.88
2022-08-27T22:10:58.394Z,15.27
2022-08-27T22:16:00.954Z,14.68
2022-08-27T22:21:04.791Z,14.10
2022-08-27T22:26:07.317Z,15.35
2022-08-27T22:31:09.877Z,14.93
2022-08-27T22:36:12.314Z,15.38
2022-08-27T22:41:18.293Z,15.55
2022-08-27T22:46:21.245Z,15.27
2022-08-27T22:51:24.213Z,16.00
2022-08-27T22:56:26.676Z,16.95
2022-08-27T23:01:29.243Z,15.88
2022-08-27T23:06:31.745Z,16.05
2022-08-27T23:11:34.187Z,16.90
2022-08-27T23:16:37.320Z,16.05
2022-08-27T23:21:39.806Z,16.42
2022-08-27T23:27:01.207Z,15.88
2022-08-27T23:32:04.159Z,16.50
2022-08-27T23:37:06.585Z,16.33
2022-08-27T23:42:09.837Z,17.08
2022-08-27T23:47:13.892Z,19.70
2022-08-27T23:52:16.439Z,16.33
2022-08-27T23:57:19.005Z,17.00
